Time;durP1;ratioP1;P1;durP2;ratioP2;P2;SDS_P1;SDS_P2;PMS_P1;PMS_P2;Temp;Humidity;BMP_temperature;BMP_pressure;BME280_temperature;BME280_humidity;BME280_pressure;Samples;Min_cycle;Max_cycle;Signal;HPM_P1;HPM_P2
2021/11/03 00:01:46;;;;;;;45.22;28.92;;;3.60;99.90;;;;;;5056192;28;20043;-67
2021/11/03 00:04:12;;;;;;;51.85;29.38;;;3.50;99.90;;;;;;5054881;28;20392;-67
2021/11/03 00:06:43;;;;;;;48.00;27.55;;;3.50;99.90;;;;;;5055648;28;20017;-67
2021/11/03 00:09:09;;;;;;;46.72;27.42;;;3.40;99.90;;;;;;5055467;28;20476;-67
2021/11/03 00:11:36;;;;;;;40.97;23.67;;;3.40;99.90;;;;;;5055734;28;20380;-67
2021/11/03 00:14:02;;;;;;;40.95;25.30;;;3.30;99.90;;;;;;5055393;28;20028;-67
2021/11/03 00:16:28;;;;;;;42.75;25.63;;;3.30;99.90;;;;;;5055394;28;20105;-67
2021/11/03 00:18:53;;;;;;;43.75;27.40;;;3.30;99.90;;;;;;5055091;28;20119;-67
2021/11/03 00:21:19;;;;;;;48.47;27.20;;;3.30;99.90;;;;;;5055336;28;20079;-67
2021/11/03 00:23:45;;;;;;;43.08;26.80;;;3.30;99.90;;;;;;5053982;28;20466;-67
2021/11/03 00:26:10;;;;;;;51.65;27.75;;;3.30;99.90;;;;;;5055246;28;20025;-67
2021/11/03 00:28:36;;;;;;;87.57;33.10;;;3.30;99.90;;;;;;5055358;28;20431;-67
2021/11/03 00:31:02;;;;;;;78.20;32.03;;;3.30;99.90;;;;;;5055139;28;20031;-67
2021/11/03 00:33:31;;;;;;;72.32;35.17;;;3.50;99.90;;;;;;5055070;28;20104;-67
2021/11/03 00:35:57;;;;;;;83.78;38.13;;;3.70;99.90;;;;;;5055054;28;20028;-67
2021/11/03 00:38:23;;;;;;;90.50;37.88;;;3.80;99.90;;;;;;5055468;28;20025;-67
2021/11/03 00:40:49;;;;;;;69.57;34.97;;;3.90;99.90;;;;;;5053593;28;20066;-67
2021/11/03 00:43:15;;;;;;;64.88;32.92;;;3.90;99.90;;;;;;5054892;28;20033;-67
2021/11/03 00:45:41;;;;;;;64.72;30.90;;;3.80;99.90;;;;;;5054873;28;20021;-67
2021/11/03 00:48:08;;;;;;;58.58;29.83;;;3.70;99.90;;;;;;5055086;28;20427;-67
2021/11/03 00:50:34;;;;;;;49.92;27.02;;;3.60;99.90;;;;;;5054688;28;20024;-67
2021/11/03 00:53:00;;;;;;;50.05;26.80;;;3.50;99.90;;;;;;5054739;28;20029;-67
2021/11/03 00:55:25;;;;;;;51.25;26.27;;;3.40;99.90;;;;;;5054936;28;20035;-67
2021/11/03 00:57:51;;;;;;;40.90;23.38;;;3.40;99.90;;;;;;5054818;28;20064;-67
2021/11/03 01:00:19;;;;;;;43.20;24.52;;;3.30;99.90;;;;;;5054523;28;20029;-67
2021/11/03 01:02:46;;;;;;;41.67;22.92;;;3.30;99.90;;;;;;5054783;28;20100;-67
2021/11/03 01:05:14;;;;;;;40.88;23.38;;;3.30;99.90;;;;;;5054453;28;20091;-67
2021/11/03 01:07:41;;;;;;;37.50;20.92;;;3.20;99.90;;;;;;5054966;28;20104;-68
2021/11/03 01:10:09;;;;;;;37.55;19.98;;;3.20;99.90;;;;;;5054327;28;20488;-68
2021/11/03 01:12:36;;;;;;;38.28;19.58;;;3.10;99.90;;;;;;5054747;28;20391;-68
2021/11/03 01:15:04;;;;;;;31.42;18.17;;;3.00;99.90;;;;;;5054037;28;20032;-68
2021/11/03 01:17:30;;;;;;;34.05;20.05;;;3.00;99.90;;;;;;5053592;28;20067;-67
2021/11/03 01:19:56;;;;;;;40.00;20.55;;;3.00;99.90;;;;;;5078327;22;20072;-67
2021/11/03 01:22:21;;;;;;;42.30;20.23;;;3.00;99.90;;;;;;5054399;28;20052;-66
2021/11/03 01:24:47;;;;;;;36.70;20.60;;;2.90;99.90;;;;;;5054097;28;20021;-66
2021/11/03 01:27:12;;;;;;;34.72;20.77;;;2.90;99.90;;;;;;5054073;28;20060;-67
2021/11/03 01:29:38;;;;;;;32.42;21.38;;;2.90;99.90;;;;;;5053961;28;20480;-66
2021/11/03 01:32:04;;;;;;;33.60;21.33;;;2.90;99.90;;;;;;5054219;28;20111;-66
2021/11/03 01:34:29;;;;;;;34.75;21.05;;;2.90;99.90;;;;;;5053897;28;20122;-66
2021/11/03 01:36:55;;;;;;;39.30;22.52;;;3.00;99.90;;;;;;5053807;28;20083;-66
2021/11/03 01:39:20;;;;;;;33.05;21.92;;;2.90;99.90;;;;;;5053769;28;20021;-66
2021/11/03 01:41:46;;;;;;;37.83;22.23;;;3.00;99.90;;;;;;5054042;28;20032;-66
2021/11/03 01:44:15;;;;;;;34.53;20.23;;;3.00;99.90;;;;;;5053732;28;20520;-66
2021/11/03 01:47:01;;;;;;;30.08;19.42;;;2.90;99.90;;;;;;5053935;28;20021;-66
2021/11/03 01:49:29;;;;;;;29.13;19.63;;;2.90;99.90;;;;;;5053844;28;20025;-67
2021/11/03 01:52:00;;;;;;;27.30;17.05;;;2.90;99.90;;;;;;5053896;28;20100;-67
2021/11/03 01:54:53;;;;;;;26.33;17.60;;;2.80;99.90;;;;;;5053901;28;20024;-67
2021/11/03 01:57:23;;;;;;;25.60;18.95;;;2.80;99.90;;;;;;5053474;28;20037;-67
2021/11/03 01:59:54;;;;;;;22.20;16.52;;;2.70;99.90;;;;;;5053428;28;20112;-67
2021/11/03 02:02:21;;;;;;;19.73;15.25;;;2.70;99.90;;;;;;5054275;28;20368;-67
2021/11/03 02:04:47;;;;;;;21.65;15.07;;;2.60;99.90;;;;;;5053685;28;20048;-67
2021/11/03 02:07:20;;;;;;;23.42;16.70;;;2.50;99.90;;;;;;5053394;28;20492;-67
2021/11/03 02:09:46;;;;;;;21.83;15.73;;;2.50;99.90;;;;;;5053539;28;20040;-67
2021/11/03 02:12:23;;;;;;;24.27;17.65;;;2.40;99.90;;;;;;5054185;28;20025;-67
2021/11/03 02:14:50;;;;;;;23.20;15.98;;;2.40;99.90;;;;;;5053344;28;20063;-67
2021/11/03 02:17:16;;;;;;;23.38;15.98;;;2.40;99.90;;;;;;5053234;28;20021;-67
2021/11/03 02:19:44;;;;;;;21.45;16.25;;;2.30;99.90;;;;;;5053027;28;20044;-67
2021/11/03 02:22:22;;;;;;;29.67;17.90;;;2.30;99.90;;;;;;5053234;28;20028;-67
2021/11/03 02:25:15;;;;;;;33.28;19.73;;;2.30;99.90;;;;;;5053195;28;20025;-67
2021/11/03 02:27:45;;;;;;;30.80;19.75;;;2.20;99.90;;;;;;5050457;28;20037;-67
2021/11/03 02:30:14;;;;;;;30.13;18.52;;;2.20;99.90;;;;;;5053332;28;20541;-67
2021/11/03 02:32:43;;;;;;;25.60;17.77;;;2.20;99.90;;;;;;5051828;28;20029;-67
2021/11/03 02:35:10;;;;;;;23.63;16.27;;;2.10;99.90;;;;;;5053320;28;20415;-67
2021/11/03 02:37:41;;;;;;;26.20;17.73;;;2.10;99.90;;;;;;5053256;28;20025;-67
2021/11/03 02:40:20;;;;;;;25.95;16.90;;;2.10;99.90;;;;;;5053264;28;20021;-67
2021/11/03 02:42:49;;;;;;;25.92;17.02;;;2.10;99.90;;;;;;5053287;28;20053;-67
2021/11/03 02:45:24;;;;;;;26.33;18.25;;;2.10;99.90;;;;;;5052945;28;20029;-67
2021/11/03 02:47:50;;;;;;;26.65;17.60;;;2.00;99.90;;;;;;5052915;28;20033;-67
2021/11/03 02:50:16;;;;;;;24.98;17.73;;;2.00;99.90;;;;;;5052983;28;20496;-67
2021/11/03 02:52:42;;;;;;;25.65;17.92;;;2.00;99.90;;;;;;5052945;28;20025;-67
2021/11/03 02:55:10;;;;;;;25.23;17.10;;;1.90;99.90;;;;;;5053464;28;20040;-67
2021/11/03 02:57:36;;;;;;;26.83;17.75;;;1.90;99.90;;;;;;5052964;28;20040;-67
2021/11/03 03:00:05;;;;;;;24.90;16.95;;;1.90;99.90;;;;;;5052977;28;20584;-67
2021/11/03 03:02:31;;;;;;;24.23;17.13;;;1.90;99.90;;;;;;5052725;28;20420;-67
2021/11/03 03:04:57;;;;;;;25.85;16.85;;;1.90;99.90;;;;;;5053053;28;20071;-67
2021/11/03 03:07:23;;;;;;;23.05;16.38;;;1.90;99.90;;;;;;5052748;28;20392;-67
2021/11/03 03:09:49;;;;;;;28.80;16.52;;;1.90;99.90;;;;;;5052695;28;20055;-67
2021/11/03 03:12:18;;;;;;;24.13;16.27;;;1.90;99.90;;;;;;5053024;28;20033;-67
2021/11/03 03:14:47;;;;;;;25.17;17.00;;;2.00;99.90;;;;;;5052678;28;20021;-67
2021/11/03 03:17:15;;;;;;;27.05;16.73;;;2.00;99.90;;;;;;5052877;28;20033;-67
2021/11/03 03:19:42;;;;;;;25.30;16.85;;;2.00;99.90;;;;;;5052654;28;20029;-67
2021/11/03 03:22:08;;;;;;;24.48;16.20;;;2.00;99.90;;;;;;5068319;28;20035;-67
2021/11/03 03:24:35;;;;;;;26.42;17.92;;;2.10;99.90;;;;;;5052874;28;20053;-67
2021/11/03 03:27:01;;;;;;;22.92;16.65;;;2.10;99.90;;;;;;5052840;28;20083;-66
2021/11/03 03:29:27;;;;;;;25.33;16.25;;;2.10;99.90;;;;;;5052471;28;20025;-66
2021/11/03 03:31:53;;;;;;;20.50;14.23;;;2.00;99.90;;;;;;5052545;28;20044;-66
2021/11/03 03:34:23;;;;;;;16.42;12.80;;;2.00;99.90;;;;;;5052801;28;20029;-66
2021/11/03 03:36:50;;;;;;;19.20;13.70;;;1.90;99.90;;;;;;5052714;28;20025;-66
2021/11/03 03:39:18;;;;;;;19.92;13.93;;;1.90;99.90;;;;;;5053196;28;20071;-67
2021/11/03 03:41:51;;;;;;;19.65;14.23;;;1.80;99.90;;;;;;5056319;28;20155;-67
2021/11/03 03:44:17;;;;;;;20.52;15.05;;;1.80;99.90;;;;;;5056284;28;20055;-67
2021/11/03 03:46:43;;;;;;;19.52;14.15;;;1.80;99.90;;;;;;5056296;28;20032;-67
2021/11/03 03:49:08;;;;;;;20.23;14.80;;;1.70;99.90;;;;;;5056127;28;20036;-67
2021/11/03 03:51:34;;;;;;;22.50;15.52;;;1.70;99.90;;;;;;5055907;28;20560;-67
2021/11/03 03:54:00;;;;;;;22.52;15.40;;;1.70;99.90;;;;;;5055831;28;20432;-67
2021/11/03 03:56:26;;;;;;;22.88;15.77;;;1.70;99.90;;;;;;5056097;28;20025;-67
2021/11/03 03:58:53;;;;;;;47.85;18.30;;;1.60;99.90;;;;;;5055937;28;20118;-67
2021/11/03 04:01:22;;;;;;;32.13;18.35;;;1.60;99.90;;;;;;5056170;28;20476;-67
2021/11/03 04:03:48;;;;;;;34.13;21.80;;;1.60;99.90;;;;;;5055947;28;20029;-67
2021/11/03 04:06:14;;;;;;;48.10;22.08;;;1.80;99.90;;;;;;5055913;28;20044;-67
2021/11/03 04:08:40;;;;;;;31.77;20.67;;;1.80;99.90;;;;;;5055613;28;20025;-67
2021/11/03 04:11:07;;;;;;;39.17;21.90;;;1.90;99.90;;;;;;5055485;28;20082;-67
2021/11/03 04:13:33;;;;;;;48.42;23.02;;;1.90;99.90;;;;;;5055773;28;20036;-67
2021/11/03 04:15:59;;;;;;;52.42;22.08;;;1.90;99.90;;;;;;5055728;28;20033;-67
2021/11/03 04:18:24;;;;;;;31.77;20.30;;;1.90;99.90;;;;;;5055365;28;20025;-67
2021/11/03 04:20:50;;;;;;;28.00;18.88;;;1.90;99.90;;;;;;5055126;28;20503;-67
2021/11/03 04:23:17;;;;;;;26.45;17.85;;;1.90;99.90;;;;;;5055327;28;20064;-67
2021/11/03 04:25:43;;;;;;;26.17;17.60;;;1.90;99.90;;;;;;5055544;28;20483;-67
2021/11/03 04:28:09;;;;;;;25.63;17.88;;;1.90;99.90;;;;;;5055215;28;20063;-67
2021/11/03 04:30:35;;;;;;;38.20;20.23;;;1.90;99.90;;;;;;5055130;28;20037;-67
2021/11/03 04:33:20;;;;;;;30.50;18.33;;;1.90;99.90;;;;;;5055916;28;20033;-67
2021/11/03 04:41:34;;;;;;;33.60;21.80;;;1.90;99.90;;;;;;5055228;28;20028;-67
2021/11/03 04:44:37;;;;;;;29.80;20.13;;;1.90;99.90;;;;;;5055199;28;20090;-67
2021/11/03 04:50:44;;;;;;;42.58;22.98;;;1.80;99.90;;;;;;5054564;28;20048;-67
2021/11/03 04:59:15;;;;;;;43.72;24.30;;;1.80;99.90;;;;;;5055002;28;20039;-67
2021/11/03 05:01:41;;;;;;;45.38;24.42;;;1.80;99.90;;;;;;5054531;28;20107;-67
2021/11/03 05:04:07;;;;;;;47.65;25.70;;;1.80;99.90;;;;;;5054823;28;20118;-67
2021/11/03 05:06:34;;;;;;;45.25;26.00;;;1.90;99.90;;;;;;5054483;28;20031;-67
2021/11/03 05:12:04;;;;;;;49.70;26.02;;;1.90;99.90;;;;;;5054445;28;20036;-67
2021/11/03 05:14:30;;;;;;;47.10;25.45;;;1.90;99.90;;;;;;5054575;28;20388;-67
2021/11/03 05:27:03;;;;;;;49.58;27.35;;;2.10;99.90;;;;;;5054577;28;20588;-67
2021/11/03 05:30:06;;;;;;;42.03;25.17;;;2.10;99.90;;;;;;5054249;28;20149;-67
2021/11/03 05:32:50;;;;;;;47.70;27.05;;;2.10;99.90;;;;;;5053960;28;20472;-67
2021/11/03 05:38:56;;;;;;;88.35;31.75;;;2.10;99.90;;;;;;5054237;28;20399;-67
2021/11/03 05:51:09;;;;;;;90.63;35.03;;;2.40;99.90;;;;;;5053915;28;20031;-67
2021/11/03 06:03:04;;;;;;;78.28;34.63;;;2.60;99.90;;;;;;5053156;28;20102;-67
2021/11/03 06:05:48;;;;;;;60.92;31.10;;;2.70;99.90;;;;;;5053703;28;20056;-67
2021/11/03 06:08:33;;;;;;;66.60;32.30;;;2.60;99.90;;;;;;5053681;28;20028;-67
2021/11/03 06:14:02;;;;;;;56.60;28.25;;;2.60;99.90;;;;;;5053915;28;20054;-67
2021/11/03 06:17:04;;;;;;;52.63;29.05;;;2.60;99.90;;;;;;5053563;28;20021;-67
2021/11/03 06:25:17;;;;;;;;;;;2.60;99.90;;;;;;5053663;28;20040;-67
2021/11/03 06:28:01;;;;;;;66.93;31.73;;;2.60;99.90;;;;;;5053123;28;19914;-67
2021/11/03 06:40:19;;;;;;;78.72;32.60;;;2.90;99.90;;;;;;5053009;28;20040;-67
2021/11/03 06:43:22;;;;;;;79.45;34.95;;;3.00;99.90;;;;;;5053224;28;20044;-67
2021/11/03 06:52:13;;;;;;;74.05;33.38;;;3.30;99.90;;;;;;5053196;28;20071;-67
2021/11/03 06:54:39;;;;;;;77.40;34.47;;;3.30;99.90;;;;;;5052881;28;20033;-67
2021/11/03 06:57:42;;;;;;;71.78;31.98;;;3.40;99.90;;;;;;5053085;28;20039;-67
2021/11/03 07:18:12;;;;;;;83.55;35.83;;;4.10;99.90;;;;;;5056600;28;20438;-67
2021/11/03 07:24:19;;;;;;;74.25;32.50;;;4.30;99.90;;;;;;5056745;28;20136;-68
2021/11/03 07:30:29;;;;;;;74.03;32.30;;;4.50;99.90;;;;;;5056547;28;20503;-67
2021/11/03 07:32:55;;;;;;;70.97;32.95;;;4.50;99.90;;;;;;5055120;28;20469;-68
2021/11/03 07:35:20;;;;;;;79.38;36.50;;;4.60;99.90;;;;;;5056194;28;20028;-68
2021/11/03 07:37:46;;;;;;;85.68;35.58;;;4.70;99.90;;;;;;5055415;28;20025;-68
2021/11/03 07:40:17;;;;;;;85.03;39.08;;;4.70;99.90;;;;;;5056271;28;20384;-68
2021/11/03 07:42:42;;;;;;;90.43;39.40;;;4.80;99.90;;;;;;5056348;28;20365;-68
2021/11/03 07:45:08;;;;;;;90.55;40.78;;;4.80;99.90;;;;;;5056314;28;20086;-68
2021/11/03 07:47:34;;;;;;;78.95;36.13;;;4.90;99.90;;;;;;5055940;28;20029;-68
2021/11/03 07:50:00;;;;;;;88.43;37.50;;;5.00;99.90;;;;;;5055923;28;20028;-68
2021/11/03 07:52:25;;;;;;;90.18;37.60;;;5.10;99.90;;;;;;5056491;28;20025;-68
2021/11/03 07:54:51;;;;;;;100.75;39.97;;;5.10;99.90;;;;;;5055864;28;20476;-68
2021/11/03 07:57:16;;;;;;;88.47;37.53;;;5.20;99.90;;;;;;5055757;28;20028;-68
2021/11/03 07:59:42;;;;;;;88.55;38.78;;;5.20;99.90;;;;;;5055664;28;20104;-68
2021/11/03 08:02:09;;;;;;;101.95;41.05;;;5.20;99.90;;;;;;5055716;28;20033;-68
2021/11/03 08:04:34;;;;;;;84.18;38.70;;;5.30;99.90;;;;;;5054435;28;20025;-68
2021/11/03 08:07:00;;;;;;;96.45;38.50;;;5.30;99.90;;;;;;5055890;28;20490;-68
2021/11/03 08:09:26;;;;;;;87.93;40.05;;;5.30;99.90;;;;;;5055578;28;20569;-68
2021/11/03 08:11:54;;;;;;;100.70;42.33;;;5.50;99.90;;;;;;5055470;28;20017;-68
2021/11/03 08:14:24;;;;;;;88.55;40.25;;;5.50;99.90;;;;;;5054238;28;20013;-68
2021/11/03 08:17:04;;;;;;;98.10;41.38;;;5.60;99.90;;;;;;5055737;28;20029;-68
2021/11/03 08:19:42;;;;;;;93.68;39.53;;;5.70;99.90;;;;;;5055981;28;20380;-68
2021/11/03 08:22:09;;;;;;;73.30;37.10;;;5.80;99.90;;;;;;5055243;28;20043;-68
2021/11/03 08:24:35;;;;;;;93.18;41.53;;;5.90;99.90;;;;;;5055400;28;20032;-68
2021/11/03 08:27:02;;;;;;;91.78;38.55;;;5.90;99.90;;;;;;5055358;28;20032;-68
2021/11/03 08:29:29;;;;;;;92.50;41.65;;;6.00;99.90;;;;;;5055207;28;20032;-68
2021/11/03 08:31:56;;;;;;;89.90;39.50;;;6.00;99.90;;;;;;5055090;28;20013;-68
2021/11/03 08:34:24;;;;;;;92.45;41.72;;;6.10;99.90;;;;;;5055106;28;20029;-68
2021/11/03 08:36:50;;;;;;;94.88;42.03;;;6.10;99.90;;;;;;5055078;28;20365;-68
2021/11/03 08:39:16;;;;;;;87.90;39.38;;;6.20;99.90;;;;;;5055221;28;20472;-67
2021/11/03 08:41:42;;;;;;;99.85;40.50;;;6.20;99.90;;;;;;5054912;28;20036;-68
2021/11/03 08:44:07;;;;;;;103.45;41.85;;;6.30;99.90;;;;;;5054882;28;20032;-68
2021/11/03 08:46:33;;;;;;;91.30;41.17;;;6.40;99.90;;;;;;5055135;28;20025;-68
2021/11/03 08:49:02;;;;;;;87.80;40.65;;;6.60;99.90;;;;;;5054867;28;20025;-68
2021/11/03 08:51:30;;;;;;;93.68;41.15;;;6.70;99.90;;;;;;5054732;28;20021;-68
2021/11/03 08:53:56;;;;;;;85.95;40.28;;;6.80;99.90;;;;;;5055036;28;20017;-68
2021/11/03 08:56:23;;;;;;;86.43;41.15;;;6.90;99.90;;;;;;5054727;28;20542;-68
2021/11/03 08:58:49;;;;;;;86.20;39.67;;;6.90;99.90;;;;;;5054543;28;20086;-68
2021/11/03 09:01:15;;;;;;;88.80;40.35;;;7.00;99.90;;;;;;5054562;28;20431;-68
2021/11/03 09:03:41;;;;;;;77.20;37.25;;;7.00;99.90;;;;;;5054519;28;20067;-68
2021/11/03 09:06:06;;;;;;;90.47;40.08;;;7.00;99.90;;;;;;5054735;28;20116;-68
2021/11/03 09:08:33;;;;;;;107.43;45.67;;;7.10;99.90;;;;;;5054442;28;20138;-68
2021/11/03 09:11:02;;;;;;;106.05;44.72;;;7.10;99.90;;;;;;5069777;28;20082;-68
2021/11/03 09:13:30;;;;;;;103.53;43.85;;;7.20;99.90;;;;;;5054348;28;20017;-68
2021/11/03 09:15:57;;;;;;;99.65;45.13;;;7.50;99.90;;;;;;5054331;28;20100;-68
2021/11/03 09:18:23;;;;;;;105.07;46.75;;;7.80;99.90;;;;;;5054450;28;20171;-68
2021/11/03 09:20:50;;;;;;;99.82;45.55;;;8.10;99.90;;;;;;5054175;28;20119;-68
2021/11/03 09:23:17;;;;;;;100.47;44.53;;;8.30;99.90;;;;;;5054193;28;20449;-68
2021/11/03 09:25:43;;;;;;;86.55;41.53;;;8.30;99.90;;;;;;5054392;28;20112;-68
2021/11/03 09:28:09;;;;;;;87.88;42.75;;;8.40;99.90;;;;;;5069712;28;20427;-68
2021/11/03 09:30:36;;;;;;;92.32;44.65;;;8.40;99.90;;;;;;5054192;28;20021;-68
2021/11/03 09:33:05;;;;;;;92.40;43.28;;;8.40;99.90;;;;;;5054037;28;20029;-68
2021/11/03 09:35:33;;;;;;;102.68;44.70;;;8.40;99.90;;;;;;5053971;28;20024;-68
2021/11/03 09:37:59;;;;;;;104.60;46.72;;;8.50;99.90;;;;;;5052879;28;20025;-68
2021/11/03 09:40:58;;;;;;;89.22;42.63;;;8.50;99.90;;;;;;5054368;28;20029;-68
2021/11/03 09:43:34;;;;;;;100.70;44.55;;;8.70;99.90;;;;;;5053482;28;20017;-68
2021/11/03 09:46:14;;;;;;;103.95;48.17;;;8.90;99.90;;;;;;5054098;28;20029;-68
2021/11/03 09:48:40;;;;;;;108.72;48.25;;;9.00;99.90;;;;;;5054322;28;20052;-68
2021/11/03 09:51:16;;;;;;;105.25;51.58;;;9.10;99.90;;;;;;5068958;28;20033;-68
2021/11/03 09:53:48;;;;;;;104.05;49.70;;;9.20;99.90;;;;;;5053946;28;20503;-68
2021/11/03 09:56:18;;;;;;;88.18;46.63;;;9.10;99.90;;;;;;5054457;28;20357;-68
2021/11/03 09:59:16;;;;;;;83.75;43.78;;;9.00;99.90;;;;;;5069083;28;20048;-68
2021/11/03 10:01:51;;;;;;;98.05;48.78;;;9.10;99.90;;;;;;5052945;28;20037;-68
2021/11/03 10:04:22;;;;;;;97.75;50.60;;;9.20;99.90;;;;;;5053763;28;20059;-68
2021/11/03 10:07:21;;;;;;;97.10;54.38;;;9.20;99.90;;;;;;5053697;28;20049;-68
2021/11/03 10:09:46;;;;;;;100.50;50.97;;;9.10;99.90;;;;;;5053617;28;20029;-68
2021/11/03 10:12:17;;;;;;;106.57;56.17;;;9.00;99.90;;;;;;5053286;28;20024;-68
2021/11/03 10:14:44;;;;;;;104.57;56.35;;;9.00;99.90;;;;;;5052075;28;20104;-68
2021/11/03 10:17:23;;;;;;;104.43;57.90;;;8.80;99.90;;;;;;5053191;28;20021;-68
2021/11/03 10:19:50;;;;;;;104.03;58.50;;;8.70;99.90;;;;;;5053295;28;20022;-68
2021/11/03 10:22:23;;;;;;;100.97;58.65;;;8.80;99.90;;;;;;5052065;28;20472;-68
2021/11/03 10:25:17;;;;;;;96.65;53.60;;;8.70;99.90;;;;;;5053527;28;20086;-68
2021/11/03 10:27:51;;;;;;;;;;;8.80;99.90;;;;;;5054140;28;20048;-68
2021/11/03 10:30:20;;;;;;;;;;;8.80;99.90;;;;;;5053512;28;20320;-68
2021/11/03 10:32:46;;;;;;;88.40;49.65;;;8.70;99.90;;;;;;5053630;28;19904;-68
2021/11/03 10:35:32;;;;;;;91.82;53.40;;;8.70;99.90;;;;;;5053035;28;20380;-68
2021/11/03 10:38:14;;;;;;;87.60;51.72;;;8.60;99.90;;;;;;5053288;28;20025;-68
2021/11/03 10:41:06;;;;;;;95.60;52.13;;;8.70;99.90;;;;;;5051720;28;20037;-68
2021/11/03 10:43:42;;;;;;;93.40;51.13;;;8.70;99.90;;;;;;5052921;28;20407;-68
2021/11/03 10:46:23;;;;;;;83.30;47.72;;;8.70;99.90;;;;;;5053308;28;20025;-68
2021/11/03 10:48:52;;;;;;;87.47;49.90;;;8.80;99.90;;;;;;5055130;28;20020;-68
2021/11/03 10:51:23;;;;;;;86.80;47.58;;;8.80;99.90;;;;;;5056990;28;20063;-68
2021/11/03 10:54:01;;;;;;;82.88;50.10;;;8.90;99.90;;;;;;5057326;28;20121;-68
2021/11/03 10:56:32;;;;;;;86.60;49.28;;;8.90;99.90;;;;;;5056998;28;20060;-68
2021/11/03 10:59:21;;;;;;;91.15;49.95;;;8.90;99.90;;;;;;5057022;28;20051;-68
2021/11/03 11:01:47;;;;;;;83.43;50.08;;;8.90;99.90;;;;;;5056842;28;20047;-68
2021/11/03 11:04:24;;;;;;;82.50;46.88;;;9.00;99.90;;;;;;5057102;28;20104;-68
2021/11/03 11:06:59;;;;;;;90.68;48.33;;;9.10;99.90;;;;;;5057061;28;20032;-68
2021/11/03 11:09:49;;;;;;;86.45;49.20;;;8.90;99.90;;;;;;5056818;28;20067;-68
2021/11/03 11:12:30;;;;;;;83.32;47.30;;;8.90;99.90;;;;;;5056733;28;20361;-68
2021/11/03 11:15:00;;;;;;;81.30;46.28;;;8.90;99.90;;;;;;5056951;28;20036;-68
2021/11/03 11:17:44;;;;;;;83.15;46.58;;;8.90;99.90;;;;;;5056755;28;20484;-68
2021/11/03 11:20:17;;;;;;;;;;;8.80;99.90;;;;;;5056799;28;20060;-68
2021/11/03 11:23:05;;;;;;;87.32;45.67;;;8.70;99.90;;;;;;5056776;28;19905;-68
2021/11/03 11:25:48;;;;;;;76.57;42.10;;;8.60;99.90;;;;;;5056733;28;20044;-68
2021/11/03 11:28:36;;;;;;;79.57;43.80;;;8.60;99.90;;;;;;5056393;28;20399;-68
2021/11/03 11:31:15;;;;;;;82.68;45.65;;;8.60;99.90;;;;;;5056294;28;20041;-68
2021/11/03 11:34:07;;;;;;;78.57;41.95;;;8.60;99.90;;;;;;5056611;28;20053;-68
2021/11/03 11:36:50;;;;;;;75.63;43.10;;;8.80;99.90;;;;;;5040679;28;20117;-68
2021/11/03 11:39:47;;;;;;;77.10;41.00;;;9.10;99.90;;;;;;5056451;28;20021;-68
2021/11/03 11:42:22;;;;;;;81.10;43.90;;;9.30;99.90;;;;;;5056161;28;20021;-68
2021/11/03 11:44:52;;;;;;;78.47;43.60;;;9.50;99.90;;;;;;5054866;28;20056;-68
2021/11/03 11:47:25;;;;;;;73.60;41.72;;;9.60;99.90;;;;;;5056010;28;20021;-68
2021/11/03 11:49:52;;;;;;;70.47;39.00;;;9.70;99.90;;;;;;5055130;28;20025;-68
2021/11/03 11:52:28;;;;;;;68.60;39.50;;;9.80;99.90;;;;;;5055927;28;20067;-68
2021/11/03 11:55:13;;;;;;;66.00;38.97;;;9.90;99.90;;;;;;5056471;28;20040;-68
2021/11/03 11:57:43;;;;;;;63.83;37.92;;;9.80;99.90;;;;;;5055759;28;20021;-68
2021/11/03 12:00:09;;;;;;;64.65;37.20;;;9.70;99.90;;;;;;5070210;28;20028;-68
2021/11/03 12:03:01;;;;;;;56.00;34.92;;;9.60;99.90;;;;;;5056020;28;20013;-68
2021/11/03 12:05:48;;;;;;;55.40;32.78;;;9.60;99.90;;;;;;5055609;28;20420;-68
2021/11/03 12:08:20;;;;;;;58.13;35.22;;;9.60;99.90;;;;;;5054427;28;20025;-68
2021/11/03 12:10:55;;;;;;;57.28;33.80;;;9.60;99.90;;;;;;5055754;28;20021;-68
2021/11/03 12:13:32;;;;;;;64.88;35.35;;;9.50;99.90;;;;;;5055712;28;20075;-68
2021/11/03 12:16:00;;;;;;;63.42;35.83;;;9.40;99.90;;;;;;5055836;28;20032;-68
2021/11/03 12:18:26;;;;;;;57.17;34.30;;;9.40;99.90;;;;;;5055867;28;20380;-68
2021/11/03 12:21:23;;;;;;;59.30;34.05;;;9.30;99.90;;;;;;5055152;28;20043;-68
2021/11/03 12:24:07;;;;;;;53.10;32.33;;;9.30;99.90;;;;;;5054118;28;20044;-68
2021/11/03 12:26:33;;;;;;;56.45;33.85;;;9.40;99.90;;;;;;5055247;28;20503;-68
2021/11/03 12:29:15;;;;;;;62.40;35.58;;;9.40;99.90;;;;;;5055472;28;20032;-68
2021/11/03 12:31:45;;;;;;;57.72;36.00;;;9.40;99.90;;;;;;5055412;28;20025;-68
2021/11/03 12:34:14;;;;;;;59.15;34.75;;;9.40;99.90;;;;;;5055357;28;20472;-68
2021/11/03 12:36:48;;;;;;;62.38;36.55;;;9.40;99.90;;;;;;5055040;28;20028;-68
2021/11/03 12:39:29;;;;;;;56.03;32.60;;;9.40;99.90;;;;;;5055278;28;20022;-68
2021/11/03 12:42:01;;;;;;;64.50;35.67;;;9.40;99.90;;;;;;5053700;28;20396;-68
2021/11/03 12:44:34;;;;;;;60.78;37.08;;;9.40;99.90;;;;;;5055047;28;20384;-68
2021/11/03 12:47:00;;;;;;;61.40;35.75;;;9.50;99.90;;;;;;5053661;28;20040;-68
2021/11/03 12:49:27;;;;;;;63.15;35.53;;;9.60;99.90;;;;;;5055096;28;20388;-68
2021/11/03 12:51:58;;;;;;;66.57;35.30;;;9.60;99.90;;;;;;5054933;28;20033;-68
2021/11/03 12:54:30;;;;;;;56.40;33.67;;;9.70;99.90;;;;;;5054812;28;20056;-68
2021/11/03 12:57:04;;;;;;;56.65;34.03;;;9.80;99.90;;;;;;5053510;28;20025;-68
2021/11/03 12:59:38;;;;;;;56.78;35.10;;;9.90;99.90;;;;;;5054546;28;20033;-68
2021/11/03 13:02:22;;;;;;;59.92;35.67;;;9.90;99.90;;;;;;5054552;28;20025;-68
2021/11/03 13:04:56;;;;;;;;;;;9.80;99.90;;;;;;5053711;28;20396;-68
2021/11/03 13:07:30;;;;;;;53.78;33.58;;;9.80;99.90;;;;;;5054566;28;19905;-68
2021/11/03 13:09:59;;;;;;;58.72;34.10;;;9.80;99.90;;;;;;5054713;28;20483;-68
2021/11/03 13:12:37;;;;;;;61.10;36.22;;;9.90;99.90;;;;;;5054277;28;20543;-68
2021/11/03 13:15:02;;;;;;;54.45;33.30;;;9.90;99.90;;;;;;5054835;28;20029;-68
2021/11/03 13:17:32;;;;;;;55.33;33.65;;;9.80;99.90;;;;;;5054177;28;20036;-68
2021/11/03 13:19:58;;;;;;;52.13;32.90;;;9.90;99.90;;;;;;5053995;28;20029;-68
2021/11/03 13:22:34;;;;;;;66.28;35.90;;;9.80;99.90;;;;;;5079209;22;20073;-68
2021/11/03 13:25:06;;;;;;;57.88;33.58;;;9.80;99.90;;;;;;5054533;28;20479;-67
2021/11/03 13:27:34;;;;;;;53.00;30.88;;;9.70;99.90;;;;;;5054100;28;20399;-67
2021/11/03 13:30:07;;;;;;;57.50;34.30;;;9.80;99.90;;;;;;5054369;28;20028;-67
2021/11/03 13:32:52;;;;;;;;;;;9.70;99.90;;;;;;5054690;28;20036;-67
2021/11/03 13:35:22;;;;;;;63.47;33.72;;;9.60;99.90;;;;;;5054320;28;19904;-66
2021/11/03 13:37:53;;;;;;;59.38;34.22;;;9.60;99.90;;;;;;5054192;28;20491;-67
2021/11/03 13:40:27;;;;;;;64.85;34.58;;;9.60;99.90;;;;;;5054616;28;20405;-67
2021/11/03 13:42:56;;;;;;;60.53;33.40;;;9.60;99.90;;;;;;5069245;28;20017;-67
2021/11/03 13:45:25;;;;;;;59.28;34.47;;;9.50;99.90;;;;;;5053859;28;20017;-67
2021/11/03 13:48:12;;;;;;;61.17;36.38;;;9.50;99.90;;;;;;5054019;28;20029;-67
2021/11/03 13:50:40;;;;;;;60.92;34.90;;;9.50;99.90;;;;;;5053920;28;20029;-66
2021/11/03 13:53:09;;;;;;;57.58;35.13;;;9.40;99.90;;;;;;5053496;28;20056;-67
2021/11/03 13:55:46;;;;;;;58.72;34.88;;;9.40;99.90;;;;;;5053489;28;20433;-67
2021/11/03 13:58:33;;;;;;;58.42;34.20;;;9.30;99.90;;;;;;5053808;28;20044;-66
2021/11/03 14:01:10;;;;;;;64.93;35.38;;;9.30;99.90;;;;;;5053733;28;20025;-67
2021/11/03 14:03:43;;;;;;;55.58;32.67;;;9.30;99.90;;;;;;5052244;28;20021;-67
2021/11/03 14:06:38;;;;;;;57.45;33.88;;;9.30;99.90;;;;;;5053388;28;20384;-67
2021/11/03 14:09:22;;;;;;;56.05;33.80;;;9.30;99.90;;;;;;5053655;28;20504;-67
2021/11/03 14:11:50;;;;;;;59.75;32.97;;;9.20;99.90;;;;;;5053666;28;20377;-67
2021/11/03 14:14:17;;;;;;;57.97;33.65;;;9.20;99.90;;;;;;5053330;28;20057;-67
2021/11/03 14:17:05;;;;;;;58.63;33.92;;;9.10;99.90;;;;;;5053734;28;20373;-66
2021/11/03 14:19:49;;;;;;;64.43;33.97;;;9.10;99.90;;;;;;5053543;28;20064;-67
2021/11/03 14:22:23;;;;;;;67.93;36.72;;;9.10;99.90;;;;;;5053101;28;20116;-66
2021/11/03 14:24:50;;;;;;;56.53;33.00;;;9.10;99.90;;;;;;5053152;28;20021;-67
2021/11/03 14:27:16;;;;;;;57.83;33.25;;;9.10;99.90;;;;;;5053440;28;20025;-67
2021/11/03 14:29:41;;;;;;;65.03;33.92;;;9.00;99.90;;;;;;5053108;28;20039;-66
2021/11/03 14:32:11;;;;;;;60.22;35.28;;;9.00;99.90;;;;;;5053004;28;20036;-66
2021/11/03 14:34:38;;;;;;;56.33;33.85;;;9.00;99.90;;;;;;5053365;28;20029;-66
2021/11/03 14:37:04;;;;;;;65.70;38.10;;;9.00;99.90;;;;;;5053335;28;20029;-66
2021/11/03 14:39:33;;;;;;;60.22;35.38;;;9.00;99.90;;;;;;5052985;28;20388;-67
2021/11/03 14:41:59;;;;;;;61.08;37.10;;;8.90;99.90;;;;;;5052861;28;20029;-66